createdAt,value
2018-12-18T00:01:34.530Z,44.30
2018-12-18T00:04:02.899Z,44.30
2018-12-18T00:06:30.606Z,44.30
2018-12-18T00:08:57.820Z,44.20
2018-12-18T00:11:26.004Z,44.40
2018-12-18T00:13:53.238Z,44.40
2018-12-18T00:16:20.595Z,44.40
2018-12-18T00:18:47.811Z,44.30
2018-12-18T00:21:15.025Z,44.30
2018-12-18T00:23:43.063Z,44.30
2018-12-18T00:26:10.316Z,44.30
2018-12-18T00:28:37.529Z,44.30
2018-12-18T00:31:04.744Z,44.30
2018-12-18T00:33:32.070Z,44.30
2018-12-18T00:35:59.276Z,44.30
2018-12-18T00:38:26.514Z,44.40
2018-12-18T00:40:54.520Z,44.40
2018-12-18T00:43:22.645Z,44.40
2018-12-18T00:45:49.986Z,44.50
2018-12-18T00:48:17.295Z,44.40
2018-12-18T00:50:44.513Z,44.40
2018-12-18T00:53:11.723Z,44.50
2018-12-18T00:55:39.941Z,44.50
2018-12-18T00:58:07.947Z,44.50
2018-12-18T01:00:36.230Z,44.50
2018-12-18T01:03:03.449Z,44.40
2018-12-18T01:05:32.576Z,44.50
2018-12-18T01:07:59.825Z,44.50
2018-12-18T01:10:27.044Z,44.50
2018-12-18T01:12:55.045Z,44.60
2018-12-18T01:15:23.094Z,44.50
2018-12-18T01:17:51.103Z,44.40
2018-12-18T01:20:19.270Z,44.50
2018-12-18T01:22:46.487Z,44.60
2018-12-18T01:25:13.702Z,44.50
2018-12-18T01:27:40.920Z,44.60
2018-12-18T01:30:08.937Z,44.50
2018-12-18T01:32:37.097Z,44.60
2018-12-18T01:35:04.567Z,44.60
2018-12-18T01:37:33.189Z,44.60
2018-12-18T01:40:01.767Z,44.70
2018-12-18T01:42:29.917Z,44.80
2018-12-18T01:44:58.118Z,44.60
2018-12-18T01:47:25.342Z,44.70
2018-12-18T01:49:53.486Z,44.60
2018-12-18T01:52:20.700Z,44.70
2018-12-18T01:54:48.726Z,44.70
2018-12-18T01:57:16.899Z,44.80
2018-12-18T01:59:45.028Z,44.80
2018-12-18T02:02:12.278Z,44.70
2018-12-18T02:04:39.487Z,44.70
2018-12-18T02:07:07.506Z,44.80
2018-12-18T02:09:34.723Z,44.80
2018-12-18T02:12:03.661Z,44.80
2018-12-18T02:14:32.943Z,44.90
2018-12-18T02:17:01.096Z,44.90
2018-12-18T02:19:29.122Z,45.60
2018-12-18T02:21:57.247Z,44.80
2018-12-18T02:24:25.439Z,44.90
2018-12-18T02:26:52.662Z,45.00
2018-12-18T02:29:20.871Z,44.90
2018-12-18T02:31:48.087Z,45.00
2018-12-18T02:34:16.210Z,45.00
2018-12-18T02:36:43.438Z,45.00
2018-12-18T02:39:11.573Z,44.90
2018-12-18T02:41:38.789Z,45.00
2018-12-18T02:44:06.775Z,45.10
2018-12-18T02:46:34.912Z,45.10
2018-12-18T02:49:03.056Z,45.00
2018-12-18T02:51:30.328Z,45.20
2018-12-18T02:53:58.618Z,45.20
2018-12-18T02:56:26.759Z,45.10
2018-12-18T02:58:54.905Z,45.00
2018-12-18T03:01:22.109Z,45.20
2018-12-18T03:03:49.321Z,45.20
2018-12-18T03:06:16.614Z,45.20
2018-12-18T03:08:44.615Z,45.40
2018-12-18T03:11:13.816Z,45.20
2018-12-18T03:13:41.101Z,45.20
2018-12-18T03:16:08.320Z,45.20
2018-12-18T03:18:35.537Z,45.20
2018-12-18T03:21:02.747Z,45.20
2018-12-18T03:23:29.969Z,45.30
2018-12-18T03:25:57.198Z,45.20
2018-12-18T03:28:24.407Z,45.20
2018-12-18T03:30:51.625Z,45.30
2018-12-18T03:33:19.706Z,45.30
2018-12-18T03:35:46.917Z,45.30
2018-12-18T03:38:14.131Z,45.20
2018-12-18T03:40:41.336Z,45.30
2018-12-18T03:43:08.555Z,45.20
2018-12-18T03:45:36.588Z,45.30
2018-12-18T03:48:03.798Z,45.10
2018-12-18T03:50:32.010Z,45.20
2018-12-18T03:53:00.061Z,45.40
2018-12-18T03:55:28.205Z,45.30
2018-12-18T03:57:55.437Z,45.30
2018-12-18T04:00:23.981Z,45.30
2018-12-18T04:02:51.207Z,45.30
2018-12-18T04:05:18.431Z,45.60
2018-12-18T04:07:45.645Z,45.30
2018-12-18T04:10:12.863Z,45.30
2018-12-18T04:12:40.981Z,46.00
2018-12-18T04:15:08.197Z,45.40
2018-12-18T04:17:36.356Z,45.40
2018-12-18T04:20:04.645Z,45.40
2018-12-18T04:22:32.782Z,45.40
2018-12-18T04:25:00.925Z,45.40
2018-12-18T04:27:28.135Z,45.40
2018-12-18T04:29:56.206Z,45.40
2018-12-18T04:32:24.722Z,45.40
2018-12-18T04:34:51.973Z,45.60
2018-12-18T04:37:20.097Z,45.50
2018-12-18T04:39:48.281Z,45.40
2018-12-18T04:42:16.319Z,45.60
2018-12-18T04:44:44.454Z,45.50
2018-12-18T04:47:12.616Z,45.60
2018-12-18T04:49:40.758Z,45.60
2018-12-18T04:52:08.902Z,45.60
2018-12-18T04:54:37.077Z,45.50
2018-12-18T04:57:04.300Z,45.50
2018-12-18T04:59:32.472Z,45.60
2018-12-18T05:01:59.682Z,45.60
2018-12-18T05:04:27.694Z,45.50
2018-12-18T05:06:55.880Z,45.60
2018-12-18T05:09:23.083Z,45.60
2018-12-18T05:11:51.128Z,45.60
2018-12-18T05:14:18.327Z,45.60
2018-12-18T05:16:45.531Z,45.50
2018-12-18T05:19:12.717Z,45.50
2018-12-18T05:21:41.007Z,45.40
2018-12-18T05:24:08.225Z,45.40
2018-12-18T05:26:35.438Z,45.40
2018-12-18T05:29:03.458Z,45.40
2018-12-18T05:31:31.486Z,45.60
2018-12-18T05:33:58.707Z,45.50
2018-12-18T05:36:26.086Z,45.60
2018-12-18T05:38:54.809Z,45.40
2018-12-18T05:41:22.076Z,45.50
2018-12-18T05:43:49.295Z,45.50
2018-12-18T05:46:17.373Z,45.60
2018-12-18T05:48:44.597Z,45.70
2018-12-18T05:51:11.859Z,45.70
2018-12-18T05:53:39.077Z,45.60
2018-12-18T05:56:06.282Z,45.70
2018-12-18T05:58:33.504Z,45.80
2018-12-18T06:01:00.714Z,45.70
2018-12-18T06:03:28.751Z,45.80
2018-12-18T06:05:55.973Z,45.70
2018-12-18T06:08:23.205Z,45.70
2018-12-18T06:10:50.432Z,45.30
2018-12-18T06:13:17.645Z,45.70
2018-12-18T06:15:44.875Z,45.70
2018-12-18T06:18:12.089Z,45.70
2018-12-18T06:20:39.312Z,45.80
2018-12-18T06:23:06.529Z,45.80
2018-12-18T06:25:33.750Z,45.70
2018-12-18T06:28:00.975Z,45.70
2018-12-18T06:30:28.181Z,45.80
2018-12-18T06:32:55.413Z,45.80
2018-12-18T06:35:22.629Z,45.80
2018-12-18T06:37:49.870Z,45.90
2018-12-18T06:40:17.108Z,45.80
2018-12-18T06:42:44.374Z,45.80
2018-12-18T06:45:12.377Z,45.90
2018-12-18T06:47:39.597Z,45.80
2018-12-18T06:50:06.810Z,46.00
2018-12-18T06:52:34.941Z,45.80
2018-12-18T06:55:02.198Z,45.90
2018-12-18T06:57:30.370Z,46.00
2018-12-18T06:59:58.386Z,47.40
2018-12-18T07:02:26.578Z,47.90
2018-12-18T07:04:54.904Z,48.50
2018-12-18T07:07:23.085Z,48.60
2018-12-18T07:09:50.343Z,48.50
2018-12-18T07:12:17.553Z,48.30
2018-12-18T10:30:26.268Z,54.10
2018-12-18T10:32:53.973Z,53.90
2018-12-18T10:35:22.091Z,52.80
2018-12-18T10:37:49.500Z,52.40
2018-12-18T10:40:16.719Z,51.40
2018-12-18T10:42:43.933Z,51.00
2018-12-18T10:45:13.879Z,51.00
2018-12-18T10:47:41.199Z,50.70
2018-12-18T10:50:08.404Z,50.80
2018-12-18T10:52:35.623Z,50.70
2018-12-18T10:55:02.868Z,51.30
2018-12-18T10:57:30.085Z,50.50
2018-12-18T10:59:57.327Z,50.30
2018-12-18T11:02:25.464Z,50.20
2018-12-18T11:04:53.288Z,50.20
2018-12-18T11:07:20.535Z,49.90
2018-12-18T11:09:47.749Z,49.80
2018-12-18T11:12:16.908Z,49.70
2018-12-18T11:14:44.256Z,49.90
2018-12-18T11:17:11.544Z,49.50
2018-12-18T11:19:38.741Z,49.60
2018-12-18T11:22:06.874Z,49.60
2018-12-18T11:24:35.014Z,49.30
2018-12-18T11:27:02.218Z,49.30
2018-12-18T11:29:30.217Z,49.30
2018-12-18T11:31:58.335Z,49.50
2018-12-18T11:34:25.532Z,49.50
2018-12-18T11:36:52.756Z,50.20
2018-12-18T11:39:19.977Z,50.40
2018-12-18T11:41:47.193Z,49.90
2018-12-18T11:44:15.344Z,50.10
2018-12-18T11:46:42.568Z,50.10
2018-12-18T11:49:10.571Z,49.90
2018-12-18T11:51:37.781Z,49.80
2018-12-18T11:54:04.986Z,49.50
2018-12-18T11:56:33.128Z,50.00
2018-12-18T11:59:00.342Z,50.30
2018-12-18T12:01:28.363Z,50.00
2018-12-18T12:03:55.616Z,50.40
2018-12-18T12:06:24.143Z,50.40
2018-12-18T12:08:51.356Z,50.10
2018-12-18T12:11:19.521Z,50.60
2018-12-18T12:13:46.755Z,50.10
2018-12-18T12:16:14.028Z,50.60
2018-12-18T12:18:41.263Z,49.90
2018-12-18T12:21:09.419Z,50.20
2018-12-18T12:23:37.597Z,50.00
2018-12-18T12:26:06.811Z,49.60
2018-12-18T12:28:34.488Z,49.70
2018-12-18T12:31:02.661Z,49.80
2018-12-18T12:33:30.887Z,49.80
2018-12-18T12:35:58.148Z,49.90
2018-12-18T12:38:26.331Z,49.60
2018-12-18T12:40:54.075Z,49.20
2018-12-18T12:43:22.105Z,49.30
2018-12-18T12:45:49.335Z,49.20
2018-12-18T12:48:18.526Z,49.00
2018-12-18T12:50:45.723Z,49.40
2018-12-18T12:53:13.051Z,49.30
2018-12-18T12:55:40.263Z,49.20
2018-12-18T12:58:08.175Z,49.50
2018-12-18T13:00:35.385Z,49.70
2018-12-18T13:03:03.606Z,49.80
2018-12-18T13:05:31.620Z,49.80
2018-12-18T13:07:58.833Z,50.20
2018-12-18T13:10:26.083Z,49.70
2018-12-18T13:12:54.597Z,50.00
2018-12-18T13:15:21.847Z,50.00
2018-12-18T13:17:50.056Z,50.00
2018-12-18T13:20:17.285Z,50.40
2018-12-18T13:22:45.423Z,50.20
2018-12-18T13:25:12.637Z,50.40
2018-12-18T13:27:39.843Z,49.60
2018-12-18T13:30:07.137Z,50.30
2018-12-18T13:32:34.366Z,50.00
2018-12-18T13:35:01.615Z,49.50
2018-12-18T13:37:29.649Z,49.90
2018-12-18T13:39:56.894Z,49.70
2018-12-18T13:42:24.851Z,50.00
2018-12-18T13:44:52.109Z,49.70
2018-12-18T13:47:19.310Z,49.80
2018-12-18T13:49:46.589Z,50.00
2018-12-18T13:52:14.726Z,49.60
2018-12-18T13:54:41.988Z,50.20
2018-12-18T13:57:09.201Z,49.60
2018-12-18T13:59:36.412Z,50.00
2018-12-18T14:02:04.567Z,50.20
2018-12-18T14:04:31.775Z,49.60
2018-12-18T14:06:58.995Z,49.90
2018-12-18T14:09:26.257Z,49.70
2018-12-18T14:11:55.487Z,49.60
2018-12-18T14:14:22.741Z,50.20
2018-12-18T14:16:49.951Z,49.60
2018-12-18T14:19:17.195Z,49.30
2018-12-18T14:21:44.386Z,49.40
2018-12-18T14:24:11.650Z,49.70
2018-12-18T14:26:38.869Z,50.10
2018-12-18T14:29:06.066Z,50.00
2018-12-18T14:31:33.280Z,49.70
2018-12-18T14:34:01.466Z,49.80
2018-12-18T14:36:28.677Z,49.10
2018-12-18T14:38:55.893Z,48.90
2018-12-18T14:41:23.103Z,48.90
2018-12-18T14:43:51.248Z,49.00
2018-12-18T14:46:19.382Z,48.90
2018-12-18T14:48:46.627Z,49.00
2018-12-18T14:51:13.842Z,48.80
2018-12-18T14:53:41.083Z,49.00
2018-12-18T14:56:08.337Z,49.30
2018-12-18T14:58:36.459Z,49.00
2018-12-18T15:01:03.710Z,49.10
2018-12-18T15:03:30.939Z,49.50
2018-12-18T15:05:58.172Z,49.60
2018-12-18T15:08:25.400Z,49.20
2018-12-18T15:10:52.624Z,48.80
2018-12-18T15:13:19.856Z,48.80
2018-12-18T15:15:47.114Z,49.10
2018-12-18T15:18:14.386Z,49.10
2018-12-18T15:20:41.614Z,49.00
2018-12-18T15:23:08.843Z,48.90
2018-12-18T15:25:36.218Z,48.80
2018-12-18T15:28:04.386Z,49.00
2018-12-18T15:30:31.645Z,48.70
2018-12-18T15:32:58.858Z,49.40
2018-12-18T15:35:26.601Z,49.10
2018-12-18T15:37:54.815Z,48.80
2018-12-18T15:40:22.827Z,49.40
2018-12-18T15:42:51.021Z,48.60
2018-12-18T15:45:19.063Z,48.90
2018-12-18T15:47:46.319Z,49.00
2018-12-18T15:50:13.619Z,48.90
2018-12-18T15:52:40.901Z,49.10
2018-12-18T15:55:08.159Z,49.30
2018-12-18T15:57:35.374Z,49.80
2018-12-18T16:00:02.635Z,50.90
2018-12-18T16:02:29.863Z,50.40
2018-12-18T16:04:58.061Z,49.90
2018-12-18T16:07:26.241Z,49.40
2018-12-18T16:09:54.292Z,48.80
2018-12-18T16:12:21.557Z,48.30
2018-12-18T16:14:48.760Z,48.20
2018-12-18T16:17:16.011Z,48.80
2018-12-18T16:19:44.060Z,49.30
2018-12-18T16:22:11.290Z,49.00
2018-12-18T16:24:38.501Z,48.30
2018-12-18T16:27:05.771Z,48.60
2018-12-18T16:29:32.988Z,48.40
2018-12-18T16:32:00.198Z,48.30
2018-12-18T16:34:27.491Z,48.00
2018-12-18T16:36:54.717Z,48.10
2018-12-18T16:39:21.940Z,47.80
2018-12-18T16:41:49.155Z,47.90
2018-12-18T16:44:16.391Z,48.20
2018-12-18T16:46:43.610Z,48.00
2018-12-18T16:49:10.828Z,47.90
2018-12-18T16:51:38.226Z,48.30
2018-12-18T16:54:05.529Z,48.00
2018-12-18T16:56:32.737Z,48.00
2018-12-18T16:59:00.040Z,47.80
2018-12-18T17:01:27.281Z,47.70
2018-12-18T17:03:55.250Z,47.90
2018-12-18T17:06:22.464Z,47.70
2018-12-18T17:08:50.694Z,48.10
2018-12-18T17:11:17.908Z,48.00
2018-12-18T17:13:45.145Z,47.70
2018-12-18T17:16:12.359Z,48.00
2018-12-18T17:18:39.581Z,47.50
2018-12-18T17:21:06.794Z,47.60
2018-12-18T17:23:34.009Z,47.50
2018-12-18T17:26:02.022Z,47.40
2018-12-18T17:28:30.172Z,47.50
2018-12-18T17:30:57.385Z,47.00
2018-12-18T17:33:25.420Z,47.00
2018-12-18T17:35:54.181Z,46.90
2018-12-18T17:38:22.173Z,46.70
2018-12-18T17:40:50.438Z,46.90
2018-12-18T17:43:19.749Z,46.90
2018-12-18T17:45:46.966Z,46.90
2018-12-18T17:48:15.108Z,47.10
2018-12-18T17:50:43.326Z,46.90
2018-12-18T17:53:11.482Z,46.90
2018-12-18T17:55:38.693Z,46.80
2018-12-18T17:58:05.916Z,46.90
2018-12-18T18:00:34.103Z,47.00
2018-12-18T18:03:01.339Z,46.70
2018-12-18T18:05:29.340Z,46.50
2018-12-18T18:07:56.559Z,46.60
2018-12-18T18:10:24.050Z,46.60
2018-12-18T18:12:54.630Z,46.70
2018-12-18T18:15:22.232Z,46.90
2018-12-18T18:17:49.475Z,47.10
2018-12-18T18:20:16.704Z,47.50
2018-12-18T18:22:44.940Z,47.50
2018-12-18T18:25:14.009Z,47.60
2018-12-18T18:27:41.239Z,47.80
2018-12-18T18:30:08.463Z,47.80
2018-12-18T18:32:35.747Z,47.80
2018-12-18T18:35:03.339Z,47.90
2018-12-18T18:37:30.562Z,47.80
2018-12-18T18:39:57.778Z,47.60
2018-12-18T18:42:25.945Z,47.60
2018-12-18T18:44:53.158Z,47.60
2018-12-18T18:47:21.326Z,47.30
2018-12-18T18:49:48.562Z,47.40
2018-12-18T18:52:15.775Z,47.60
2018-12-18T18:54:43.006Z,47.60
2018-12-18T18:57:11.184Z,47.20
2018-12-18T18:59:38.440Z,47.20
2018-12-18T19:02:05.654Z,47.20
2018-12-18T19:04:34.796Z,47.20
2018-12-18T19:07:03.073Z,46.90
2018-12-18T19:09:30.307Z,47.00
2018-12-18T19:11:57.529Z,47.20
2018-12-18T19:14:25.185Z,46.90
2018-12-18T19:16:52.403Z,46.80
2018-12-18T19:19:20.502Z,47.30
2018-12-18T19:21:47.739Z,46.50
2018-12-18T19:24:15.029Z,46.70
2018-12-18T19:26:42.827Z,46.40
2018-12-18T19:29:10.152Z,46.40
2018-12-18T19:31:37.365Z,46.60
2018-12-18T19:34:04.636Z,46.60
2018-12-18T19:36:31.954Z,46.60
2018-12-18T19:38:59.209Z,46.50
2018-12-18T19:41:26.449Z,46.20
2018-12-18T19:43:53.825Z,46.50
2018-12-18T19:46:21.820Z,46.20
2018-12-18T19:48:49.080Z,46.40
2018-12-18T19:51:16.389Z,46.30
2018-12-18T19:53:43.619Z,46.20
2018-12-18T19:56:11.638Z,46.20
2018-12-18T19:58:38.891Z,46.10
2018-12-18T20:01:06.110Z,46.80
2018-12-18T20:03:33.338Z,46.30
2018-12-18T20:06:00.563Z,46.30
2018-12-18T20:08:27.821Z,46.40
2018-12-18T20:10:56.112Z,46.30
2018-12-18T20:13:23.352Z,46.50
2018-12-18T20:15:51.398Z,46.30
2018-12-18T20:18:18.623Z,46.30
2018-12-18T20:20:45.905Z,46.40
2018-12-18T20:23:13.190Z,45.90
2018-12-18T20:25:40.408Z,46.30
2018-12-18T20:28:07.671Z,46.20
2018-12-18T20:30:34.905Z,46.10
2018-12-18T20:33:02.151Z,46.10
2018-12-18T20:35:29.363Z,46.30
2018-12-18T20:37:56.666Z,46.20
2018-12-18T20:40:24.478Z,46.10
2018-12-18T20:42:51.707Z,46.10
2018-12-18T20:45:18.934Z,45.90
2018-12-18T20:47:46.156Z,46.10
2018-12-18T20:50:13.377Z,45.90
2018-12-18T20:52:40.598Z,45.80
2018-12-18T20:55:07.820Z,45.90
2018-12-18T20:57:35.057Z,45.90
2018-12-18T21:00:02.601Z,45.80
2018-12-18T21:02:29.928Z,45.90
2018-12-18T21:04:57.259Z,46.00
2018-12-18T21:07:24.997Z,45.60
2018-12-18T21:09:52.209Z,45.50
2018-12-18T21:12:19.436Z,45.70
2018-12-18T21:14:46.644Z,45.50
2018-12-18T21:17:13.895Z,45.40
2018-12-18T21:19:41.167Z,45.50
2018-12-18T21:22:09.390Z,45.60
2018-12-18T21:24:36.612Z,45.80
2018-12-18T21:27:04.671Z,45.50
2018-12-18T21:29:31.904Z,45.70
2018-12-18T21:32:02.040Z,45.50
2018-12-18T21:34:29.263Z,45.80
2018-12-18T21:36:56.582Z,45.60
2018-12-18T21:39:24.548Z,45.70
2018-12-18T21:41:51.746Z,45.60
2018-12-18T21:44:18.973Z,45.60
2018-12-18T21:46:46.191Z,45.80
2018-12-18T21:49:13.404Z,45.90
2018-12-18T21:51:40.615Z,45.70
2018-12-18T21:54:07.804Z,45.40
2018-12-18T21:56:35.037Z,45.40
2018-12-18T21:59:02.255Z,45.30
2018-12-18T22:01:29.469Z,45.40
2018-12-18T22:03:56.699Z,45.70
2018-12-18T22:06:24.880Z,45.40
2018-12-18T22:08:52.098Z,45.50
2018-12-18T22:11:20.123Z,45.40
2018-12-18T22:13:47.349Z,45.50
2018-12-18T22:16:14.561Z,45.20
2018-12-18T22:18:41.783Z,45.30
2018-12-18T22:21:09.942Z,45.30
2018-12-18T22:23:37.987Z,45.30
2018-12-18T22:26:05.200Z,45.40
2018-12-18T22:28:33.211Z,45.20
2018-12-18T22:31:01.349Z,45.30
2018-12-18T22:33:28.578Z,45.40
2018-12-18T22:35:56.584Z,45.30
2018-12-18T22:38:24.123Z,45.40
2018-12-18T22:40:52.142Z,45.20
2018-12-18T22:43:20.296Z,45.20
2018-12-18T22:45:48.459Z,45.20
2018-12-18T22:48:15.736Z,45.10
2018-12-18T22:50:42.956Z,44.90
2018-12-18T22:53:11.106Z,44.90
2018-12-18T22:55:44.691Z,45.20
2018-12-18T22:58:08.545Z,45.60
2018-12-18T23:00:42.406Z,45.20
2018-12-18T23:03:10.590Z,45.60
2018-12-18T23:05:37.805Z,45.30
2018-12-18T23:08:05.046Z,45.30
2018-12-18T23:10:32.280Z,45.50
2018-12-18T23:12:59.533Z,45.30
2018-12-18T23:15:27.672Z,45.30
2018-12-18T23:17:55.706Z,45.40
2018-12-18T23:20:22.921Z,45.10
2018-12-18T23:22:50.184Z,44.90
2018-12-18T23:25:17.496Z,45.60
2018-12-18T23:27:44.797Z,45.00
2018-12-18T23:30:12.096Z,45.10
2018-12-18T23:32:39.354Z,45.10
2018-12-18T23:35:06.569Z,44.90
2018-12-18T23:37:33.795Z,44.80
2018-12-18T23:40:01.975Z,45.00
2018-12-18T23:42:30.117Z,44.90
2018-12-18T23:44:57.375Z,45.00
2018-12-18T23:47:25.148Z,44.70
2018-12-18T23:49:52.368Z,44.60
2018-12-18T23:52:19.581Z,44.60
2018-12-18T23:54:46.854Z,44.80
2018-12-18T23:57:14.071Z,45.40
2018-12-18T23:59:42.119Z,44.60
